Time;durP1;ratioP1;P1;durP2;ratioP2;P2;SDS_P1;SDS_P2;PMS_P1;PMS_P2;Temp;Humidity;BMP_temperature;BMP_pressure;BME280_temperature;BME280_humidity;BME280_pressure;Samples;Min_cycle;Max_cycle;Signal;HPM_P1;HPM_P2
2023/06/19 00:00:32;;;;;;;9.10;8.80;;;;;;;-141.02;100.00;107971.50;5133541;27;20196;-56
2023/06/19 00:02:58;;;;;;;10.18;9.88;;;;;;;-141.02;100.00;107971.50;5133139;27;20650;-56
2023/06/19 00:05:26;;;;;;;10.15;9.85;;;;;;;-141.02;100.00;107971.50;5133216;27;20195;-56
2023/06/19 00:07:53;;;;;;;10.38;9.98;;;;;;;-141.02;100.00;107971.50;5133193;27;20741;-56
2023/06/19 00:10:20;;;;;;;10.70;10.30;;;;;;;-141.02;100.00;107971.50;5133395;27;20283;-56
2023/06/19 00:12:49;;;;;;;10.60;10.20;;;;;;;-141.02;100.00;107971.50;5133190;27;20711;-56
2023/06/19 00:15:16;;;;;;;10.70;10.30;;;;;;;-141.02;100.00;107971.50;5133432;27;20199;-56
2023/06/19 00:17:43;;;;;;;10.60;10.20;;;;;;;-141.02;100.00;107971.50;5132901;27;20220;-56
2023/06/19 00:20:10;;;;;;;10.70;10.30;;;;;;;-141.02;100.00;107971.50;5133354;27;20583;-56
2023/06/19 00:22:37;;;;;;;10.95;10.55;;;;;;;-141.02;100.00;107971.50;5132905;28;20322;-56
2023/06/19 00:25:05;;;;;;;11.10;10.70;;;;;;;-141.02;100.00;107971.50;5132952;27;20231;-56
2023/06/19 00:27:32;;;;;;;11.07;10.68;;;;;;;-141.02;100.00;107971.50;5132983;28;20235;-56
2023/06/19 00:30:01;;;;;;;11.20;10.80;;;;;;;-141.02;100.00;107971.50;5133260;28;20278;-56
2023/06/19 00:32:29;;;;;;;11.10;10.70;;;;;;;-141.02;100.00;107971.50;5133139;28;20203;-56
2023/06/19 00:34:56;;;;;;;10.98;10.57;;;;;;;-141.02;100.00;107971.50;5133638;27;20192;-56
2023/06/19 00:37:23;;;;;;;11.07;10.68;;;;;;;-141.02;100.00;107971.50;5137562;27;20232;-56
2023/06/19 00:39:50;;;;;;;11.27;10.88;;;;;;;-141.02;100.00;107971.50;5137162;27;20291;-56
2023/06/19 00:42:17;;;;;;;10.90;10.50;;;;;;;-141.02;100.00;107971.50;5136966;27;20311;-56
2023/06/19 00:44:44;;;;;;;10.70;10.30;;;;;;;-141.02;100.00;107971.50;5137061;27;20234;-56
2023/06/19 00:47:13;;;;;;;11.15;10.75;;;;;;;-141.02;100.00;107971.50;5137279;27;20274;-56
2023/06/19 00:49:40;;;;;;;11.05;10.65;;;;;;;-141.02;100.00;107971.50;5137238;27;20220;-56
2023/06/19 00:52:08;;;;;;;11.23;10.82;;;;;;;-141.02;100.00;107971.50;5137249;27;20194;-56
2023/06/19 00:54:35;;;;;;;11.25;10.85;;;;;;;-141.02;100.00;107971.50;5136872;27;20200;-56
2023/06/19 00:57:03;;;;;;;12.00;11.50;;;;;;;-141.02;100.00;107971.50;5137132;27;20265;-56
2023/06/19 00:59:30;;;;;;;12.55;12.05;;;;;;;-141.02;100.00;107971.50;5136747;27;20200;-56
2023/06/19 01:01:57;;;;;;;12.60;12.10;;;;;;;-141.02;100.00;107971.50;5136660;27;20220;-56
2023/06/19 01:04:26;;;;;;;13.18;12.57;;;;;;;-141.02;100.00;107971.50;5136984;27;20210;-56
2023/06/19 01:06:58;;;;;;;13.18;12.57;;;;;;;-141.02;100.00;107971.50;5136981;27;20633;-56
2023/06/19 01:09:30;;;;;;;13.40;12.80;;;;;;;-141.02;100.00;107971.50;5136928;27;20205;-56
2023/06/19 01:12:02;;;;;;;12.90;12.32;;;;;;;-141.02;100.00;107971.50;5136508;27;20585;-56
2023/06/19 01:14:37;;;;;;;13.20;12.60;;;;;;;-141.02;100.00;107971.50;5136515;27;20184;-56
2023/06/19 01:17:04;;;;;;;13.30;12.70;;;;;;;-141.02;100.00;107971.50;5136301;27;20267;-56
2023/06/19 01:19:33;;;;;;;13.10;12.50;;;;;;;-141.02;100.00;107971.50;5136765;27;20597;-56
2023/06/19 01:22:03;;;;;;;12.20;11.70;;;;;;;-141.02;100.00;107971.50;5136622;27;20224;-56
2023/06/19 01:24:30;;;;;;;11.00;10.60;;;;;;;-141.02;100.00;107971.50;5136750;27;20185;-56
2023/06/19 01:26:58;;;;;;;10.50;10.10;;;;;;;-141.02;100.00;107971.50;5136252;27;20236;-56
2023/06/19 01:29:25;;;;;;;9.60;9.30;;;;;;;-141.02;100.00;107971.50;5136478;27;20283;-56
2023/06/19 01:31:59;;;;;;;9.60;9.30;;;;;;;-141.02;100.00;107971.50;5136444;27;20299;-56
2023/06/19 01:34:28;;;;;;;10.02;9.73;;;;;;;-141.02;100.00;107971.50;5136374;27;20279;-56
2023/06/19 01:36:57;;;;;;;9.65;9.35;;;;;;;-141.02;100.00;107971.50;5136044;27;20231;-56
2023/06/19 01:39:26;;;;;;;8.95;8.65;;;;;;;-141.02;100.00;107971.50;5136296;27;20227;-56
2023/06/19 01:41:54;;;;;;;8.88;8.57;;;;;;;-141.02;100.00;107971.50;5135818;27;20605;-56
2023/06/19 01:44:22;;;;;;;8.95;8.65;;;;;;;-141.02;100.00;107971.50;5136224;27;20276;-56
2023/06/19 01:46:50;;;;;;;8.88;8.57;;;;;;;-141.02;100.00;107971.50;5134942;27;20197;-56
2023/06/19 01:49:17;;;;;;;9.40;9.10;;;;;;;-141.02;100.00;107971.50;5136136;27;20199;-56
2023/06/19 01:51:44;;;;;;;9.30;9.00;;;;;;;-141.02;100.00;107971.50;5135700;27;20286;-56
2023/06/19 01:54:11;;;;;;;9.68;9.38;;;;;;;-141.02;100.00;107971.50;5136043;27;20193;-56
2023/06/19 01:56:40;;;;;;;9.82;9.52;;;;;;;-141.02;100.00;107971.50;5135668;27;20228;-55
2023/06/19 01:59:06;;;;;;;10.23;9.93;;;;;;;-141.02;100.00;107971.50;5135563;27;20283;-56
2023/06/19 02:01:33;;;;;;;11.10;10.70;;;;;;;-141.02;100.00;107971.50;5135852;27;20196;-56
2023/06/19 02:04:00;;;;;;;10.98;10.57;;;;;;;-141.02;100.00;107971.50;5135836;27;20196;-56
2023/06/19 02:06:27;;;;;;;11.10;10.70;;;;;;;-141.02;100.00;107971.50;5135555;27;20288;-56
2023/06/19 02:08:54;;;;;;;11.20;10.80;;;;;;;-141.02;100.00;107971.50;5135907;27;20232;-56
2023/06/19 02:11:21;;;;;;;11.02;10.63;;;;;;;-141.02;100.00;107971.50;5135729;27;20225;-56
2023/06/19 02:13:49;;;;;;;11.02;10.63;;;;;;;-141.02;100.00;107971.50;5135689;27;20197;-56
2023/06/19 02:16:16;;;;;;;11.63;11.23;;;;;;;-141.02;100.00;107971.50;5135321;27;20232;-56
2023/06/19 02:18:43;;;;;;;11.90;11.50;;;;;;;-141.02;100.00;107971.50;5135295;27;20192;-56
2023/06/19 02:21:11;;;;;;;11.27;10.88;;;;;;;-141.02;100.00;107971.50;5135243;27;20242;-56
2023/06/19 02:23:37;;;;;;;10.85;10.45;;;;;;;-141.02;100.00;107971.50;5135400;27;20281;-56
2023/06/19 02:26:04;;;;;;;10.52;10.23;;;;;;;-141.02;100.00;107971.50;5135425;27;20200;-56
2023/06/19 02:28:31;;;;;;;11.20;10.80;;;;;;;-141.02;100.00;107971.50;5135410;27;20196;-56
2023/06/19 02:31:00;;;;;;;11.00;10.60;;;;;;;-141.02;100.00;107971.50;5135402;27;20279;-56
2023/06/19 02:33:27;;;;;;;10.30;10.00;;;;;;;-141.02;100.00;107971.50;5134977;27;20192;-56
2023/06/19 02:35:58;;;;;;;10.80;10.40;;;;;;;-141.02;100.00;107971.50;5134943;27;20627;-56
2023/06/19 02:38:26;;;;;;;11.10;10.70;;;;;;;-141.02;100.00;107971.50;5135237;27;20195;-56
2023/06/19 02:40:53;;;;;;;10.35;10.05;;;;;;;-141.02;100.00;107971.50;5135158;27;20271;-56
2023/06/19 02:43:20;;;;;;;10.57;10.18;;;;;;;-141.02;100.00;107971.50;5134767;27;20773;-56
2023/06/19 02:45:47;;;;;;;10.50;10.10;;;;;;;-141.02;100.00;107971.50;5134998;27;20265;-56
2023/06/19 02:48:16;;;;;;;10.90;10.50;;;;;;;-141.02;100.00;107971.50;5134697;27;20192;-56
2023/06/19 02:50:43;;;;;;;11.02;10.63;;;;;;;-141.02;100.00;107971.50;5134918;27;20197;-56
2023/06/19 02:53:11;;;;;;;11.70;11.30;;;;;;;-141.02;100.00;107971.50;5134919;27;20195;-56
2023/06/19 02:55:37;;;;;;;12.00;11.50;;;;;;;-141.02;100.00;107971.50;5134577;27;20283;-56
2023/06/19 02:58:05;;;;;;;12.13;11.63;;;;;;;-141.02;100.00;107971.50;5134275;27;20189;-56
2023/06/19 03:00:32;;;;;;;12.30;11.80;;;;;;;-141.02;100.00;107971.50;5134446;27;20253;-56
2023/06/19 03:02:59;;;;;;;11.98;11.48;;;;;;;-141.02;100.00;107971.50;5134609;27;20315;-56
2023/06/19 03:05:28;;;;;;;12.20;11.70;;;;;;;-141.02;100.00;107971.50;5134360;27;20284;-55
2023/06/19 03:07:55;;;;;;;12.50;12.00;;;;;;;-141.02;100.00;107971.50;5134637;27;20246;-56
2023/06/19 03:10:22;;;;;;;12.50;12.00;;;;;;;-141.02;100.00;107971.50;5134251;27;20627;-56
2023/06/19 03:12:49;;;;;;;12.20;11.70;;;;;;;-141.02;100.00;107971.50;5134500;27;20576;-56
2023/06/19 03:15:16;;;;;;;12.30;11.80;;;;;;;-141.02;100.00;107971.50;5134098;27;20196;-56
2023/06/19 03:17:43;;;;;;;12.30;11.80;;;;;;;-141.02;100.00;107971.50;5133986;27;20311;-56
2023/06/19 03:20:12;;;;;;;12.50;12.00;;;;;;;-141.02;100.00;107971.50;5134375;27;20196;-56
2023/06/19 03:22:41;;;;;;;12.48;11.98;;;;;;;-141.02;100.00;107971.50;5134247;27;20224;-56
2023/06/19 03:25:09;;;;;;;13.00;12.40;;;;;;;-141.02;100.00;107971.50;5134426;27;20226;-56
2023/06/19 03:27:36;;;;;;;13.40;12.80;;;;;;;-141.02;100.00;107971.50;5134208;27;20220;-55
2023/06/19 03:30:06;;;;;;;13.80;13.10;;;;;;;-141.02;100.00;107971.50;5134208;27;20231;-69
2023/06/19 03:32:33;;;;;;;14.55;13.75;;;;;;;-141.02;100.00;107971.50;5133783;27;20200;-56
2023/06/19 03:35:00;;;;;;;15.10;14.30;;;;;;;-141.02;100.00;107971.50;5134130;27;20196;-56
2023/06/19 03:37:27;;;;;;;15.73;14.82;;;;;;;-141.02;100.00;107971.50;5133983;27;20199;-56
2023/06/19 03:39:55;;;;;;;16.50;15.50;;;;;;;-141.02;100.00;107971.50;5134006;27;20198;-56
2023/06/19 03:42:23;;;;;;;16.65;15.65;;;;;;;-141.02;100.00;107971.50;5133889;27;20220;-56
2023/06/19 03:44:50;;;;;;;16.75;15.75;;;;;;;-141.02;100.00;107971.50;5133590;27;20199;-56
2023/06/19 03:47:17;;;;;;;16.58;15.68;;;;;;;-141.02;100.00;107971.50;5133548;27;20188;-56
2023/06/19 03:49:44;;;;;;;16.05;15.15;;;;;;;-141.02;100.00;107971.50;5133493;27;20358;-56
2023/06/19 03:52:11;;;;;;;16.23;15.23;;;;;;;-141.02;100.00;107971.50;5133501;27;20224;-56
2023/06/19 03:54:38;;;;;;;16.88;15.88;;;;;;;-141.02;100.00;107971.50;5133771;27;20633;-56
2023/06/19 03:57:08;;;;;;;17.25;16.15;;;;;;;-141.02;100.00;107971.50;5133630;27;20196;-57
2023/06/19 03:59:35;;;;;;;17.08;15.98;;;;;;;-141.02;100.00;107971.50;5133367;27;20249;-56
2023/06/19 04:02:02;;;;;;;17.30;16.20;;;;;;;-141.02;100.00;107971.50;5133600;27;20547;-56
2023/06/19 04:04:29;;;;;;;18.10;16.83;;;;;;;-141.02;100.00;107971.50;5133288;27;20701;-56
2023/06/19 04:06:56;;;;;;;18.70;17.30;;;;;;;-141.02;100.00;107971.50;5133287;27;20678;-56
2023/06/19 04:09:23;;;;;;;19.35;17.85;;;;;;;-141.02;100.00;107969.53;5133161;27;20196;-56
2023/06/19 04:11:50;;;;;;;19.30;17.80;;;;;;;-141.02;100.00;107969.53;5133110;27;20197;-56
2023/06/19 04:14:19;;;;;;;19.98;18.48;;;;;;;-141.02;100.00;107969.53;5133425;27;20277;-56
2023/06/19 04:16:46;;;;;;;19.88;18.27;;;;;;;-141.02;100.00;107719.09;5133031;27;20328;-56
2023/06/19 04:19:13;;;;;;;20.67;18.88;;;;;;;-141.02;98.67;107218.31;5133036;27;20688;-56
2023/06/19 04:21:40;;;;;;;21.55;19.65;;;;;;;-141.02;98.99;106717.56;5133173;27;20753;-68
2023/06/19 04:24:08;;;;;;;21.25;19.35;;;;;;;-141.02;100.00;106967.91;5133562;27;20263;-57
2023/06/19 04:26:36;;;;;;;22.10;20.00;;;;;;;-141.02;97.04;106717.56;5133065;27;20226;-68
2023/06/19 04:29:03;;;;;;;23.17;21.17;;;;;;;-141.02;93.66;106467.22;5133313;28;20199;-57
2023/06/19 04:31:31;;;;;;;22.67;20.50;;;;;;;-141.02;100.00;106216.91;5133322;27;20249;-69
2023/06/19 04:33:58;;;;;;;22.27;20.17;;;;;;;-141.02;100.00;106467.22;5133001;28;20721;-56
2023/06/19 04:36:25;;;;;;;22.17;20.08;;;;;;;-141.02;100.00;106467.22;5133262;28;20271;-56
2023/06/19 04:38:52;;;;;;;21.63;19.63;;;;;;;-141.02;100.00;106717.56;5133459;28;20196;-56
2023/06/19 04:41:19;;;;;;;22.75;20.55;;;;;;;-141.02;93.85;106216.91;5133251;27;20196;-56
2023/06/19 04:43:46;;;;;;;22.70;20.50;;;;;;;-141.02;93.47;106467.22;5133131;28;20315;-56
2023/06/19 04:46:13;;;;;;;22.80;20.60;;;;;;;-141.02;91.90;106216.91;5132898;28;20200;-56
2023/06/19 04:48:41;;;;;;;22.98;20.77;;;;;;;-141.02;91.93;106467.22;5133046;28;20188;-56
2023/06/19 04:51:08;;;;;;;22.95;20.75;;;;;;;-141.02;88.75;105716.31;5133120;28;20200;-56
2023/06/19 04:53:35;;;;;;;23.00;20.90;;;;;;;-141.02;89.44;105966.59;5133102;28;20271;-56
2023/06/19 04:56:02;;;;;;;21.98;19.88;;;;;;;-141.02;85.82;105966.59;5133101;28;20563;-56
2023/06/19 04:58:29;;;;;;;22.58;20.27;;;;;;;-141.02;84.66;105716.31;5133049;28;20630;-56
2023/06/19 05:00:56;;;;;;;20.48;18.58;;;;;;;-141.02;92.17;105215.78;5132642;28;20192;-56
2023/06/19 05:03:23;;;;;;;20.17;18.27;;;;;;;-141.02;95.28;104965.56;5132636;28;20263;-56
2023/06/19 05:05:52;;;;;;;18.60;17.00;;;;;;;-141.02;100.00;105215.78;5133441;27;20206;-57
2023/06/19 05:08:19;;;;;;;17.95;16.55;;;;;;;-141.02;100.00;105466.03;5132990;28;20613;-55
2023/06/19 05:10:49;;;;;;;17.60;16.20;;;;;;;-141.02;100.00;105966.59;5132611;28;20228;-55
2023/06/19 05:13:18;;;;;;;18.58;16.98;;;;;;;-141.02;100.00;105966.59;5132803;28;20257;-56
2023/06/19 05:15:45;;;;;;;19.20;17.50;;;;;;;-141.02;100.00;105716.31;5132590;28;20245;-56
2023/06/19 05:18:12;;;;;;;20.30;18.60;;;;;;;-141.02;100.00;105716.31;5132825;28;20253;-56
2023/06/19 05:20:39;;;;;;;19.65;18.05;;;;;;;-141.02;100.00;105716.31;5133093;27;20200;-56
2023/06/19 05:23:07;;;;;;;20.05;18.35;;;;;;;-141.02;100.00;105966.59;5136708;27;20259;-56
2023/06/19 05:25:34;;;;;;;20.25;18.55;;;;;;;-141.02;100.00;105966.59;5136669;27;20288;-56
2023/06/19 05:28:01;;;;;;;19.33;17.73;;;;;;;-141.02;100.00;105966.59;5136254;27;20192;-56
2023/06/19 05:30:28;;;;;;;19.20;17.60;;;;;;;-141.02;100.00;105966.59;5136138;27;20242;-56
2023/06/19 05:32:55;;;;;;;19.65;17.95;;;;;;;-141.02;100.00;105716.31;5136528;27;20250;-56
2023/06/19 05:35:22;;;;;;;20.50;18.80;;;;;;;-141.02;100.00;105716.31;5136470;27;20291;-56
2023/06/19 05:37:49;;;;;;;19.15;17.55;;;;;;;-141.02;100.00;105716.31;5136094;27;20689;-56
2023/06/19 05:40:17;;;;;;;18.42;16.92;;;;;;;-141.02;100.00;105466.03;5136340;27;20245;-56
2023/06/19 05:42:44;;;;;;;17.77;16.38;;;;;;;-141.02;100.00;105966.59;5136185;27;20189;-56
2023/06/19 05:45:12;;;;;;;17.60;16.20;;;;;;;-141.02;100.00;106216.91;5135991;27;20189;-57
2023/06/19 05:47:39;;;;;;;18.15;16.65;;;;;;;-141.02;100.00;105966.59;5135909;27;20232;-57
2023/06/19 05:50:07;;;;;;;17.85;16.35;;;;;;;-141.02;100.00;105716.31;5136201;27;20275;-56
2023/06/19 05:52:34;;;;;;;18.13;16.63;;;;;;;-141.02;100.00;106216.91;5136171;27;20226;-56
2023/06/19 05:55:01;;;;;;;18.05;16.55;;;;;;;-141.02;100.00;106216.91;5135743;27;20238;-56
2023/06/19 05:57:29;;;;;;;18.13;16.60;;;;;;;-141.02;100.00;105716.31;5136017;27;20200;-56
2023/06/19 05:59:56;;;;;;;18.27;16.67;;;;;;;-141.02;100.00;105966.59;5135998;27;20283;-56
2023/06/19 06:02:23;;;;;;;17.98;16.48;;;;;;;-141.02;100.00;105966.59;5135695;27;20279;-56
2023/06/19 06:04:51;;;;;;;18.33;16.73;;;;;;;-141.02;100.00;105716.31;5135496;27;20263;-56
2023/06/19 06:07:18;;;;;;;18.55;16.90;;;;;;;-141.02;100.00;105716.31;5135475;27;20203;-56
2023/06/19 06:09:45;;;;;;;18.98;17.38;;;;;;;-141.02;100.00;106216.91;5135530;27;20225;-56
2023/06/19 06:12:11;;;;;;;18.60;16.90;;;;;;;-141.02;100.00;105466.03;5135689;27;20192;-57
2023/06/19 06:14:41;;;;;;;18.17;16.48;;;;;;;-141.02;100.00;105966.59;5135447;27;20661;-56
2023/06/19 06:17:08;;;;;;;18.40;16.70;;;;;;;-141.02;100.00;105966.59;5135124;27;20736;-57
2023/06/19 06:19:36;;;;;;;18.33;16.63;;;;;;;-141.02;100.00;105716.31;5135566;27;20608;-56
2023/06/19 06:22:04;;;;;;;18.55;16.75;;;;;;;-141.02;100.00;105716.31;5135554;27;20378;-57
2023/06/19 06:24:31;;;;;;;18.65;16.85;;;;;;;-141.02;100.00;105716.31;5135072;27;20776;-56
2023/06/19 06:26:58;;;;;;;19.27;17.38;;;;;;;-141.02;99.40;105716.31;5135224;27;20281;-57
2023/06/19 06:29:25;;;;;;;19.83;17.85;;;;;;;-141.02;100.00;105716.31;5135464;27;20195;-57
2023/06/19 06:32:04;;;;;;;19.98;17.98;;;;;;;-141.02;99.37;105466.03;5135315;27;20275;-56
2023/06/19 06:34:32;;;;;;;20.00;18.00;;;;;;;-141.02;99.13;105716.31;5134438;27;20642;-57
2023/06/19 06:36:59;;;;;;;20.60;18.50;;;;;;;-141.02;99.62;105466.03;5135299;27;20196;-56
2023/06/19 06:39:26;;;;;;;21.10;18.90;;;;;;;-141.02;97.71;105466.03;5135195;27;20283;-57
2023/06/19 06:41:53;;;;;;;21.15;18.90;;;;;;;-141.02;97.08;105466.03;5134857;27;20197;-56
2023/06/19 06:44:20;;;;;;;20.13;18.02;;;;;;;-141.02;99.25;105716.31;5134726;27;20314;-57
2023/06/19 06:46:47;;;;;;;21.83;19.40;;;;;;;-141.02;94.90;104965.56;5134791;27;20199;-73
2023/06/19 06:49:16;;;;;;;22.73;19.70;;;;;;;-141.02;95.21;104965.56;5135070;27;20224;-57
2023/06/19 06:51:43;;;;;;;21.85;19.65;;;;;;;-141.02;95.42;105466.03;5134866;27;20677;-57
2023/06/19 06:54:10;;;;;;;20.63;18.42;;;;;;;-141.02;96.34;105466.03;5134922;27;20192;-57
2023/06/19 06:56:37;;;;;;;21.45;19.15;;;;;;;-141.02;93.01;105215.78;5134550;27;20571;-57
2023/06/19 06:59:05;;;;;;;20.48;18.27;;;;;;;-141.02;94.34;105716.31;5134516;27;20644;-57
2023/06/19 07:01:31;;;;;;;22.63;20.23;;;;;;;-141.02;90.92;105215.78;5134798;27;20716;-74
2023/06/19 07:03:58;;;;;;;22.70;19.67;;;;;;;-141.02;91.80;105215.78;5134310;27;20785;-57
2023/06/19 07:06:27;;;;;;;22.35;19.85;;;;;;;-141.02;90.66;105215.78;5134445;27;20250;-57
2023/06/19 07:08:54;;;;;;;23.73;20.40;;;;;;;-141.02;89.07;104965.56;5134594;27;20283;-58
2023/06/19 07:11:21;;;;;;;24.70;22.00;;;;;;;-141.02;89.59;104965.56;5134578;27;20275;-57
2023/06/19 07:13:48;;;;;;;22.48;19.55;;;;;;;-141.02;89.10;105215.78;5134552;27;20196;-57
2023/06/19 07:16:15;;;;;;;24.20;21.08;;;;;;;-141.02;86.98;104965.56;5133963;27;20748;-57
2023/06/19 07:18:42;;;;;;;26.10;22.60;;;;;;;-141.02;83.21;104465.16;5134136;27;20228;-57
2023/06/19 07:21:13;;;;;;;25.55;22.75;;;;;;;-141.02;85.13;104465.16;5134432;27;20394;-57
2023/06/19 07:23:43;;;;;;;26.45;23.65;;;;;;;-141.02;83.93;104465.16;5134022;27;20720;-57
2023/06/19 07:26:11;;;;;;;27.60;24.70;;;;;;;-141.02;85.79;104465.16;5134301;27;20196;-58
2023/06/19 07:28:38;;;;;;;26.58;23.65;;;;;;;-141.02;84.67;104214.97;5133934;27;20686;-57
2023/06/19 07:31:05;;;;;;;27.10;24.40;;;;;;;-141.02;84.98;104214.97;5134204;27;20188;-57
2023/06/19 07:33:31;;;;;;;27.35;24.45;;;;;;;-141.02;85.53;103964.81;5133826;27;20287;-57
2023/06/19 07:35:58;;;;;;;27.10;24.40;;;;;;;-141.02;86.69;104214.97;5134160;27;20211;-72
2023/06/19 07:38:25;;;;;;;26.95;24.05;;;;;;;-141.02;85.83;103964.81;5133813;27;20283;-58
2023/06/19 07:40:54;;;;;;;24.90;22.20;;;;;;;-141.02;88.92;104465.16;5133785;27;20236;-57
2023/06/19 07:43:22;;;;;;;25.52;22.27;;;;;;;-141.02;88.05;104965.56;5133700;27;20651;-57
2023/06/19 07:45:49;;;;;;;28.10;25.20;;;;;;;-141.02;83.32;104214.97;5133209;27;20196;-58
2023/06/19 07:48:16;;;;;;;27.48;24.58;;;;;;;-141.02;86.67;104715.34;5133900;27;20280;-57
2023/06/19 07:50:43;;;;;;;26.40;23.40;;;;;;;-141.02;81.65;104214.97;5134267;27;20227;-58
2023/06/19 07:53:10;;;;;;;27.10;24.20;;;;;;;-141.02;85.30;104465.16;5133439;27;20685;-57
2023/06/19 07:55:37;;;;;;;28.52;25.42;;;;;;;-141.02;79.52;103714.66;5133379;27;20246;-59
2023/06/19 07:58:06;;;;;;;26.00;23.20;;;;;;;-141.02;83.86;103964.81;5133344;27;20674;-58
2023/06/19 08:00:33;;;;;;;29.08;26.08;;;;;;;-141.02;81.93;104214.97;5133593;27;20189;-57
2023/06/19 08:03:00;;;;;;;27.35;24.45;;;;;;;-141.02;79.41;103964.81;5133288;27;20192;-63
2023/06/19 08:05:27;;;;;;;30.15;26.73;;;;;;;-141.02;73.84;102714.25;5133056;27;20220;-57
2023/06/19 08:07:54;;;;;;;28.85;25.40;;;;;;;-141.02;75.48;103214.44;5133293;27;20203;-58
2023/06/19 08:10:21;;;;;;;28.90;25.73;;;;;;;-141.02;75.70;102464.22;5133851;27;20245;-58
2023/06/19 08:12:47;;;;;;;29.02;25.92;;;;;;;-141.02;80.65;103214.44;5133141;27;20279;-57
2023/06/19 08:15:16;;;;;;;28.20;25.20;;;;;;;-141.02;78.94;103214.44;5133491;27;20279;-58
2023/06/19 08:17:43;;;;;;;26.88;24.08;;;;;;;-141.02;78.91;102964.34;5132822;27;20654;-57
2023/06/19 08:20:11;;;;;;;27.75;24.85;;;;;;;-141.02;78.98;102964.34;5133353;27;20224;-58
2023/06/19 08:22:38;;;;;;;27.85;24.88;;;;;;;-141.02;80.21;102714.25;5133385;27;20275;-58
2023/06/19 08:25:06;;;;;;;28.25;25.23;;;;;;;-141.02;78.14;102964.34;5133109;27;20311;-57
2023/06/19 08:27:33;;;;;;;29.77;26.52;;;;;;;-141.02;75.06;102464.22;5132966;27;20625;-57
2023/06/19 08:30:00;;;;;;;28.75;25.02;;;;;;;-141.02;78.61;102714.25;5132842;28;20652;-58
2023/06/19 08:32:28;;;;;;;28.60;24.63;;;;;;;-141.02;75.95;102464.22;5132936;28;20272;-57
2023/06/19 08:34:55;;;;;;;27.20;23.52;;;;;;;-141.02;77.83;102964.34;5132851;28;20227;-75
2023/06/19 08:37:22;;;;;;;28.05;23.95;;;;;;;-141.02;77.28;102964.34;5132803;27;20249;-58
2023/06/19 08:39:49;;;;;;;29.40;26.20;;;;;;;-141.02;76.61;101964.16;5132964;28;20192;-57
2023/06/19 08:42:16;;;;;;;29.75;26.20;;;;;;;-141.02;76.41;101964.16;5133066;27;20238;-58
2023/06/19 08:44:43;;;;;;;29.60;25.67;;;;;;;-141.02;75.17;101714.16;5132714;28;20690;-57
2023/06/19 08:47:10;;;;;;;29.58;25.38;;;;;;;-141.02;77.07;102214.16;5133074;27;20360;-57
2023/06/19 08:49:38;;;;;;;28.63;24.67;;;;;;;-141.02;81.04;102964.34;5133097;28;20196;-57
2023/06/19 08:52:07;;;;;;;30.13;26.83;;;;;;;-141.02;74.92;101464.19;5132979;28;20637;-58
2023/06/19 08:54:43;;;;;;;28.75;25.60;;;;;;;-141.02;79.81;102464.22;5132890;28;20238;-57
2023/06/19 08:57:11;;;;;;;29.92;26.65;;;;;;;-141.02;73.12;101714.16;5135435;27;20188;-58
2023/06/19 08:59:38;;;;;;;29.40;26.23;;;;;;;-141.02;76.48;101714.16;5136700;27;20196;-58
2023/06/19 09:02:05;;;;;;;28.80;25.70;;;;;;;-141.02;80.25;102714.25;5136759;27;20285;-58
2023/06/19 09:04:33;;;;;;;29.35;26.15;;;;;;;-141.02;78.78;102214.16;5136587;27;20600;-58
2023/06/19 09:07:03;;;;;;;28.45;25.35;;;;;;;-141.02;76.51;102714.25;5136531;27;20207;-57
2023/06/19 09:09:32;;;;;;;29.55;26.35;;;;;;;-141.02;73.28;101964.16;5136612;27;20753;-57
2023/06/19 09:12:01;;;;;;;31.67;28.27;;;;;;;-141.02;72.21;100964.25;5136872;27;20649;-59
2023/06/19 09:14:33;;;;;;;32.10;28.70;;;;;;;-141.02;72.55;100964.25;5136659;27;20269;-58
2023/06/19 09:17:01;;;;;;;30.25;26.95;;;;;;;-141.02;73.06;100964.25;5136363;27;20263;-58
2023/06/19 09:19:28;;;;;;;29.95;26.65;;;;;;;-141.02;71.38;100214.53;5136599;27;20228;-58
2023/06/19 09:22:02;;;;;;;29.85;25.92;;;;;;;-141.02;74.86;101464.19;5136373;27;20284;-58
2023/06/19 09:24:35;;;;;;;28.25;24.80;;;;;;;-141.02;73.32;101464.19;5136318;27;20228;-57
2023/06/19 09:27:12;;;;;;;29.45;25.35;;;;;;;-141.02;70.93;99964.66;5136492;27;20192;-58
2023/06/19 09:29:40;;;;;;;30.35;25.52;;;;;;;-141.02;72.28;99464.97;5136061;27;20611;-57
2023/06/19 09:32:17;;;;;;;29.73;25.85;;;;;;;-141.02;72.21;99714.81;5136047;27;20640;-58
2023/06/19 09:34:44;;;;;;;30.35;26.77;;;;;;;-141.02;71.58;99215.16;5136372;27;20227;-73
2023/06/19 09:37:13;;;;;;;28.80;25.38;;;;;;;-141.02;74.62;100214.53;5136249;27;20249;-58
2023/06/19 09:39:41;;;;;;;27.35;24.35;;;;;;;-141.02;75.79;100714.34;5136338;27;20224;-57
2023/06/19 09:42:10;;;;;;;28.55;25.45;;;;;;;-141.02;72.36;99964.66;5136225;27;20224;-58
2023/06/19 09:44:42;;;;;;;28.50;25.40;;;;;;;-141.02;70.91;99964.66;5136138;27;20310;-57
2023/06/19 09:47:18;;;;;;;28.25;25.15;;;;;;;-141.02;73.25;100464.44;5135935;27;20191;-58
2023/06/19 09:49:50;;;;;;;29.70;26.02;;;;;;;-141.02;70.28;99714.81;5135707;27;20684;-58
2023/06/19 09:52:22;;;;;;;29.00;25.58;;;;;;;-141.02;73.63;100464.44;5135937;27;20601;-57
2023/06/19 09:54:51;;;;;;;29.33;25.20;;;;;;;-141.02;73.48;100964.25;5135780;27;20199;-58
2023/06/19 09:57:18;;;;;;;29.40;25.65;;;;;;;-141.02;67.60;99964.66;5136092;27;20224;-57
2023/06/19 09:59:49;;;;;;;31.67;27.08;;;;;;;-141.02;66.04;99964.66;5135579;27;20577;-58
2023/06/19 10:02:17;;;;;;;31.38;26.83;;;;;;;-141.02;67.31;99464.97;5135544;27;20213;-59
2023/06/19 10:04:46;;;;;;;32.03;26.80;;;;;;;-141.02;65.18;97466.91;5135766;27;20306;-58
2023/06/19 10:07:17;;;;;;;32.75;27.77;;;;;;;-141.02;67.08;96468.31;5135235;27;20193;-57
2023/06/19 10:09:58;;;;;;;29.73;25.25;;;;;;;-141.02;70.36;97217.22;5134977;27;20197;-58
2023/06/19 10:12:35;;;;;;;31.38;26.20;;;;;;;-141.02;66.32;96967.56;5135597;27;20213;-57
2023/06/19 10:15:10;;;;;;;30.58;26.30;;;;;;;-141.02;68.51;96967.56;5135384;27;20639;-58
2023/06/19 10:17:37;;;;;;;31.50;28.05;;;;;;;-141.02;66.40;96218.69;5135080;27;20227;-57
2023/06/19 10:20:11;;;;;;;32.53;29.02;;;;;;;-141.02;69.86;95220.47;5135395;27;20235;-58
2023/06/19 10:22:38;;;;;;;33.15;29.55;;;;;;;-141.02;69.20;96717.94;5135288;27;20184;-57
2023/06/19 10:25:07;;;;;;;30.85;27.55;;;;;;;-141.02;67.17;94721.44;5134919;27;20314;-58
2023/06/19 10:27:38;;;;;;;31.58;28.13;;;;;;;-141.02;71.97;94970.94;5135114;27;20189;-57
2023/06/19 10:30:17;;;;;;;33.45;29.85;;;;;;;-141.02;70.65;96218.69;5135379;27;20195;-58
2023/06/19 10:32:44;;;;;;;30.75;26.30;;;;;;;-141.02;69.85;96717.94;5134694;27;20189;-58
2023/06/19 10:35:13;;;;;;;31.52;26.45;;;;;;;-141.02;65.98;96717.94;5134942;27;20249;-58
2023/06/19 10:37:40;;;;;;;33.40;29.27;;;;;;;-141.02;65.49;96468.31;5135110;27;20211;-58
2023/06/19 10:40:10;;;;;;;34.20;29.63;;;;;;;-141.02;62.17;94222.50;5134860;27;20615;-58
2023/06/19 10:42:38;;;;;;;33.95;30.25;;;;;;;-141.02;64.86;95220.47;5134990;27;20196;-58
2023/06/19 10:45:06;;;;;;;33.63;29.80;;;;;;;-141.02;63.00;94721.44;5134657;27;20271;-58
2023/06/19 10:47:34;;;;;;;34.45;30.65;;;;;;;-141.02;63.25;94721.44;5134614;27;20196;-57
2023/06/19 10:50:01;;;;;;;34.60;30.80;;;;;;;-141.02;64.33;94471.97;5134526;27;20640;-62
2023/06/19 10:52:29;;;;;;;34.55;30.75;;;;;;;-141.02;63.96;93973.06;5135551;27;20196;-58
2023/06/19 10:54:57;;;;;;;32.70;27.08;;;;;;;-141.02;64.36;95220.47;5134519;27;20196;-58